Flight Track Log - Related Links

Times and Time Zones

All times are in EDT time to prevent confusion due to time zone crossing. See the EGF4260 flight status page for this flight to view local times or setup timezone preferences in your user account.

Time Position Orientation Groundspeed Altitude Reporting Facility
EDT Latitude Longitude Course Direction KTS MPH feet Rate Location/Type
Sun 04:39:34 PM 41.9333 -87.9167 173° South 183 211 1,900  Level Chicago TRACON
Sun 04:40:34 PM 41.8667 -87.9000 169° South 224 258 4,200 1,846 Climbing Chicago TRACON
Sun 04:41:00 PM 41.7197 -87.6012 157° South  Level Estimated
Sun 04:41:31 PM 41.8164 -87.9033 183° South 240 276 5,500  Level Chicago Center
Sun 04:42:00 PM 41.6322 -87.4999 156° South  Level Estimated
Sun 04:42:34 PM 41.7308 -87.8489 155° Southeast 286 329 8,500  Level Chicago Center
Sun 04:43:00 PM 41.5446 -87.3989 159° South  Level Estimated
Sun 04:43:36 PM 41.6636 -87.7847 145° Southeast 296 341 10,500  Level Chicago Center
Sun 04:44:00 PM 41.4569 -87.2982 173° South  Level Estimated
Sun 04:44:38 PM 41.5906 -87.7206 147° Southeast 309 356 12,500  Level Chicago Center
Sun 04:45:40 PM 41.5092 -87.6561 149° Southeast 333 383 13,600 1,016 Climbing Chicago Center
Sun 04:46:42 PM 41.4200 -87.5864 150° Southeast 362 417 14,600 1,016 Climbing Chicago Center
Sun 04:47:44 PM 41.3269 -87.5142 150° Southeast 382 440 15,700 1,065 Climbing Chicago Center
Sun 04:48:46 PM 41.2317 -87.4397 150° Southeast 394 453 16,800 1,452 Climbing Chicago Center
Sun 04:49:48 PM 41.1147 -87.3500 150° Southeast 403 464 18,700 1,645 Climbing Chicago Center
Sun 04:50:50 PM 41.0189 -87.2761 150° Southeast 401 461 20,200 1,452 Climbing Chicago Center
Sun 04:51:52 PM 40.9222 -87.2028 150° Southeast 402 463 21,700 1,306 Climbing Chicago Center
Sun 04:52:54 PM 40.8253 -87.1272 149° Southeast 406 467 22,900 629 Climbing Chicago Center
Sun 04:53:56 PM 40.7228 -87.0489 150° Southeast 426 490 23,000 48 Climbing Chicago Center
Sun 04:54:58 PM 40.6083 -86.9636 150° Southeast 454 522 23,000  Level Chicago Center
Sun 04:56:00 PM 40.4817 -86.8672 150° Southeast 449 517 23,000  Level Chicago Center
Sun 04:57:02 PM 40.3736 -86.7850 150° Southeast 446 513 23,000  Level Chicago Center
Sun 04:58:04 PM 40.2647 -86.7036 150° Southeast 447 514 23,000  Level Chicago Center
Sun 04:59:06 PM 40.1567 -86.6233 150° Southeast 444 511 23,000  Level Chicago Center
Sun 04:59:57 PM 40.0647 -86.5536 150° Southeast 446 513 23,000  Level Indianapolis Center
Sun 05:00:59 PM 39.9561 -86.4722 150° Southeast 448 516 23,000  Level Indianapolis Center
Sun 05:02:01 PM 39.8447 -86.3892 150° Southeast 457 526 23,000 -1,078 Level Indianapolis Center
Sun 05:03:07 PM 39.7667 -86.2167 120° Southeast 449 517 20,700 -2,341 Descending Indianapolis TRACON
Sun 05:04:04 PM 39.7239 -86.0981 115° Southeast 436 502 18,200 -2,773 Descending Indianapolis Center
Sun 05:05:06 PM 39.6778 -85.9578 113° Southeast 421 484 15,200 -2,419 Descending Indianapolis Center
Sun 05:06:08 PM 39.6233 -85.7986 114° Southeast 413 475 13,200 -1,500 Descending Indianapolis Center
Sun 05:07:10 PM 39.5803 -85.6708 114° Southeast 388 447 12,100 -1,065 Descending Indianapolis Center
Sun 05:08:12 PM 39.5372 -85.5414 113° Southeast 388 447 11,000 -532 Descending Indianapolis Center
Sun 05:09:14 PM 39.4922 -85.4189 115° Southeast 377 434 11,000 -293 Level Indianapolis Center
Sun 05:10:15 PM 39.4603 -85.2947 108° East 363 418 10,400 -780 Descending Indianapolis Center
Sun 05:11:17 PM 39.4353 -85.1928 108° East 301 346 9,400 -1,065 Descending Indianapolis Center
Sun 05:12:19 PM 39.4100 -85.0933 108° East 291 335 8,200 -1,597 Descending Indianapolis Center
Sun 05:13:21 PM 39.3744 -85.0042 117° Southeast 281 323 6,100 -1,548 Descending Indianapolis Center
Sun 05:14:23 PM 39.3297 -84.9033 120° Southeast 281 323 5,000 -825 Descending Indianapolis Center
Sun 05:14:41 PM 39.3167 -84.8667 115° Southeast 287 330 5,000 -923 Level Cincinnati TRACON
Sun 05:15:41 PM 39.3000 -84.7667 102° East 276 318 3,800 -1,000 Descending Cincinnati TRACON
Sun 05:16:41 PM 39.2833 -84.6667 102° East 279 321 3,000 -800 Descending Cincinnati TRACON

Login

Don't have an account? Register now (free) for customized features, flight alerts, and more!